sensor_id;sensor_type;location;lat;lon;timestamp;pressure;altitude;pressure_sealevel;temperature;humidity
26915;BME280;14480;52.608;13.416;2023-05-11T09:06:37;144992.97;;;4.11;63.38
26915;BME280;14480;52.608;13.416;2023-05-11T09:11:42;145025.44;;;4.24;63.95
26915;BME280;14480;52.608;13.416;2023-05-11T09:16:48;145034.16;;;4.28;62.37
26915;BME280;14480;52.608;13.416;2023-05-11T09:21:55;145102.88;;;4.56;62.02
26915;BME280;14480;52.608;13.416;2023-05-11T09:27:05;145182.81;;;4.88;60.96
26915;BME280;14480;52.608;13.416;2023-05-11T09:32:11;145236.53;;;5.10;59.51
26915;BME280;14480;52.608;13.416;2023-05-11T09:37:18;144879.41;;;3.65;57.95
26915;BME280;14480;52.608;13.416;2023-05-11T09:42:22;145272.75;;;5.25;58.86
26915;BME280;14480;52.608;13.416;2023-05-11T09:47:30;145345.22;;;5.54;56.60
26915;BME280;14480;52.608;13.416;2023-05-11T09:52:52;145418.97;;;5.84;54.68
26915;BME280;14480;52.608;13.416;2023-05-11T09:58:09;145475.28;;;6.07;54.39
26915;BME280;14480;52.608;13.416;2023-05-11T10:03:13;145560.31;;;6.42;53.87
26915;BME280;14480;52.608;13.416;2023-05-11T10:08:18;145596.56;;;6.57;54.01
26915;BME280;14480;52.608;13.416;2023-05-11T10:13:30;145470.28;;;6.05;54.48
26915;BME280;14480;52.608;13.416;2023-05-11T10:18:34;145506.53;;;6.20;53.90
26915;BME280;14480;52.608;13.416;2023-05-11T10:23:40;145617.84;;;6.65;53.61
26915;BME280;14480;52.608;13.416;2023-05-11T10:28:44;145679.16;;;6.90;53.53
26915;BME280;14480;52.608;13.416;2023-05-11T10:33:49;145606.63;;;6.61;51.50
26915;BME280;14480;52.608;13.416;2023-05-11T10:38:55;145694.19;;;6.96;51.92
26915;BME280;14480;52.608;13.416;2023-05-11T10:44:08;145699.19;;;6.98;51.61
26915;BME280;14480;52.608;13.416;2023-05-11T10:54:52;145549.09;;;6.37;51.78
26915;BME280;14480;52.608;13.416;2023-05-11T11:05:33;145531.56;;;6.30;53.74
26915;BME280;14480;52.608;13.416;2023-05-11T11:10:38;145577.84;;;6.49;53.80
26915;BME280;14480;52.608;13.416;2023-05-11T11:21:40;145565.31;;;6.44;53.42
26915;BME280;14480;52.608;13.416;2023-05-11T11:27:05;145476.53;;;6.08;53.11
26915;BME280;14480;52.608;13.416;2023-05-11T11:32:25;145417.72;;;5.84;56.36
26915;BME280;14480;52.608;13.416;2023-05-11T11:42:55;145217.78;;;5.03;59.24
26915;BME280;14480;52.608;13.416;2023-05-11T11:48:13;145160.31;;;4.79;60.38
26915;BME280;14480;52.608;13.416;2023-05-11T12:18:21;145475.28;;;6.07;52.81
26915;BME280;14480;52.608;13.416;2023-05-11T12:23:52;145462.81;;;6.02;53.81
26915;BME280;14480;52.608;13.416;2023-05-11T12:36:13;145425.22;;;5.87;57.38
26915;BME280;14480;52.608;13.416;2023-05-11T12:41:25;145412.72;;;5.82;57.31
26915;BME280;14480;52.608;13.416;2023-05-11T13:06:59;145592.81;;;6.55;50.76
26915;BME280;14480;52.608;13.416;2023-05-11T13:12:07;145546.53;;;6.36;50.10
26915;BME280;14480;52.608;13.416;2023-05-11T13:17:29;145617.84;;;6.65;48.95
26915;BME280;14480;52.608;13.416;2023-05-11T13:22:36;145632.88;;;6.71;48.92
26915;BME280;14480;52.608;13.416;2023-05-11T13:27:40;145605.38;;;6.60;49.69
26915;BME280;14480;52.608;13.416;2023-05-11T13:33:00;145621.59;;;6.67;51.42
26915;BME280;14480;52.608;13.416;2023-05-11T13:38:38;145574.06;;;6.48;49.90
26915;BME280;14480;52.608;13.416;2023-05-11T13:44:24;145525.31;;;6.28;50.08
26915;BME280;14480;52.608;13.416;2023-05-11T13:49:31;145522.81;;;6.27;48.38
26915;BME280;14480;52.608;13.416;2023-05-11T14:00:44;145426.47;;;5.88;47.75
26915;BME280;14480;52.608;13.416;2023-05-11T14:12:07;145521.56;;;6.26;47.19
26915;BME280;14480;52.608;13.416;2023-05-11T14:17:12;145501.53;;;6.18;47.71
26915;BME280;14480;52.608;13.416;2023-05-11T14:22:15;145403.94;;;5.78;49.19
26915;BME280;14480;52.608;13.416;2023-05-11T14:27:19;145373.94;;;5.66;48.24
26915;BME280;14480;52.608;13.416;2023-05-11T14:32:24;145320.25;;;5.44;48.35
26915;BME280;14480;52.608;13.416;2023-05-11T14:37:29;145305.22;;;5.38;48.41
26915;BME280;14480;52.608;13.416;2023-05-11T14:42:35;145286.47;;;5.31;49.24
26915;BME280;14480;52.608;13.416;2023-05-11T14:47:54;145297.75;;;5.35;49.62
26915;BME280;14480;52.608;13.416;2023-05-11T14:53:00;145312.72;;;5.41;49.53
26915;BME280;14480;52.608;13.416;2023-05-11T14:58:34;145300.25;;;5.36;48.96
26915;BME280;14480;52.608;13.416;2023-05-11T15:21:49;145346.47;;;5.55;50.54
26915;BME280;14480;52.608;13.416;2023-05-11T15:27:00;145381.50;;;5.69;49.06
26915;BME280;14480;52.608;13.416;2023-05-11T15:49:48;145186.53;;;4.90;50.24
26915;BME280;14480;52.608;13.416;2023-05-11T15:55:11;145154.09;;;4.77;52.30
26915;BME280;14480;52.608;13.416;2023-05-11T16:00:41;145144.06;;;4.73;53.24
26915;BME280;14480;52.608;13.416;2023-05-11T16:05:52;145152.84;;;4.76;52.43
26915;BME280;14480;52.608;13.416;2023-05-11T16:11:03;145174.03;;;4.85;53.02
26915;BME280;14480;52.608;13.416;2023-05-11T16:16:07;145067.91;;;4.42;56.27
26915;BME280;14480;52.608;13.416;2023-05-11T16:21:12;145060.38;;;4.38;56.84
26915;BME280;14480;52.608;13.416;2023-05-11T16:26:17;145061.63;;;4.39;57.74
26915;BME280;14480;52.608;13.416;2023-05-11T16:31:59;145017.97;;;4.21;58.46
26915;BME280;14480;52.608;13.416;2023-05-11T16:37:05;144990.47;;;4.10;58.49
26915;BME280;14480;52.608;13.416;2023-05-11T16:42:08;144983.00;;;4.07;59.00
26915;BME280;14480;52.608;13.416;2023-05-11T16:47:11;144953.06;;;3.95;58.89
26915;BME280;14480;52.608;13.416;2023-05-11T16:52:20;144938.06;;;3.89;59.04
26915;BME280;14480;52.608;13.416;2023-05-11T16:57:25;144924.34;;;3.83;59.80
26915;BME280;14480;52.608;13.416;2023-05-11T17:02:31;144913.09;;;3.78;58.93
26915;BME280;14480;52.608;13.416;2023-05-11T17:07:37;144916.81;;;3.80;58.85
26915;BME280;14480;52.608;13.416;2023-05-11T17:12:44;144918.06;;;3.80;57.78
26915;BME280;14480;52.608;13.416;2023-05-11T17:17:48;144906.84;;;3.76;56.73
26915;BME280;14480;52.608;13.416;2023-05-11T17:22:56;144940.53;;;3.90;56.64
26915;BME280;14480;52.608;13.416;2023-05-11T17:28:00;144938.06;;;3.89;56.68
26915;BME280;14480;52.608;13.416;2023-05-11T17:33:03;144920.56;;;3.81;56.62
26915;BME280;14480;52.608;13.416;2023-05-11T17:38:09;144913.09;;;3.78;59.37
26915;BME280;14480;52.608;13.416;2023-05-11T17:43:13;144874.41;;;3.63;60.15
26915;BME280;14480;52.608;13.416;2023-05-11T17:48:16;144853.19;;;3.54;60.74
26915;BME280;14480;52.608;13.416;2023-05-11T17:53:21;144840.72;;;3.49;58.46
26915;BME280;14480;52.608;13.416;2023-05-11T17:58:25;144800.78;;;3.33;58.91
26915;BME280;14480;52.608;13.416;2023-05-11T18:03:29;144798.28;;;3.32;58.32
26915;BME280;14480;52.608;13.416;2023-05-11T18:08:34;144765.88;;;3.18;59.54
26915;BME280;14480;52.608;13.416;2023-05-11T18:13:38;144754.66;;;3.14;59.25
26915;BME280;14480;52.608;13.416;2023-05-11T18:18:41;144747.13;;;3.11;60.55
26915;BME280;14480;52.608;13.416;2023-05-11T18:23:47;144702.25;;;2.92;59.55
26915;BME280;14480;52.608;13.416;2023-05-11T18:28:50;144703.50;;;2.93;59.43
26915;BME280;14480;52.608;13.416;2023-05-11T18:33:55;144672.34;;;2.80;61.40
26915;BME280;14480;52.608;13.416;2023-05-11T18:39:00;144658.59;;;2.75;61.67
26915;BME280;14480;52.608;13.416;2023-05-11T18:44:03;144627.41;;;2.62;62.06
26915;BME280;14480;52.608;13.416;2023-05-11T18:49:07;144621.19;;;2.59;62.20
26915;BME280;14480;52.608;13.416;2023-05-11T18:54:14;144597.50;;;2.50;62.78
26915;BME280;14480;52.608;13.416;2023-05-11T18:59:20;144572.56;;;2.40;64.96
26915;BME280;14480;52.608;13.416;2023-05-11T19:04:27;144547.63;;;2.29;65.32
26915;BME280;14480;52.608;13.416;2023-05-11T19:09:33;144530.19;;;2.22;66.10
26915;BME280;14480;52.608;13.416;2023-05-11T19:14:36;144501.53;;;2.11;65.28
26915;BME280;14480;52.608;13.416;2023-05-11T19:19:40;144470.38;;;1.98;66.44
26915;BME280;14480;52.608;13.416;2023-05-11T19:24:45;144457.91;;;1.93;66.62
26915;BME280;14480;52.608;13.416;2023-05-11T19:36:26;144355.75;;;1.51;66.27
26915;BME280;14480;52.608;13.416;2023-05-11T19:48:28;144295.94;;;1.27;66.90
26915;BME280;14480;52.608;13.416;2023-05-11T19:53:31;144272.31;;;1.17;67.26
26915;BME280;14480;52.608;13.416;2023-05-11T19:58:52;144246.16;;;1.06;67.50
26915;BME280;14480;52.608;13.416;2023-05-11T20:03:59;144222.47;;;0.97;67.90
26915;BME280;14480;52.608;13.416;2023-05-11T20:09:06;144193.84;;;0.85;68.63
26915;BME280;14480;52.608;13.416;2023-05-11T20:14:10;144167.69;;;0.74;69.41
26915;BME280;14480;52.608;13.416;2023-05-11T20:19:18;144149.00;;;0.67;70.28
26915;BME280;14480;52.608;13.416;2023-05-11T20:24:24;144116.66;;;0.53;71.23
26915;BME280;14480;52.608;13.416;2023-05-11T20:29:30;144109.19;;;0.50;71.85
26915;BME280;14480;52.608;13.416;2023-05-11T20:40:36;144068.09;;;0.34;73.78
26915;BME280;14480;52.608;13.416;2023-05-11T20:46:00;144045.72;;;0.24;74.62
26915;BME280;14480;52.608;13.416;2023-05-11T20:51:14;144035.75;;;0.20;75.11
26915;BME280;14480;52.608;13.416;2023-05-11T20:56:24;144025.81;;;0.16;75.58
26915;BME280;14480;52.608;13.416;2023-05-11T21:02:28;144022.09;;;0.15;76.28
26915;BME280;14480;52.608;13.416;2023-05-11T21:07:36;144020.84;;;0.14;76.61
26915;BME280;14480;52.608;13.416;2023-05-11T21:12:45;143990.97;;;0.02;77.62
26915;BME280;14480;52.608;13.416;2023-05-11T21:17:49;143984.72;;;-0.01;78.21
26915;BME280;14480;52.608;13.416;2023-05-11T21:22:52;143969.81;;;-0.07;78.81
26915;BME280;14480;52.608;13.416;2023-05-11T21:27:57;143951.16;;;-0.14;79.72
